createdAt,value
2023-02-14T00:01:28.867Z,34.17
2023-02-14T00:04:00.593Z,32.03
2023-02-14T00:06:29.891Z,32.03
2023-02-14T00:08:57.903Z,37.27
2023-02-14T00:11:25.995Z,33.93
2023-02-14T00:14:07.868Z,31.50
2023-02-14T00:16:35.808Z,32.37
2023-02-14T00:19:05.203Z,35.63
2023-02-14T00:21:35.881Z,32.53
2023-02-14T00:24:03.830Z,31.27
2023-02-14T00:26:31.849Z,33.73
2023-02-14T00:28:59.825Z,33.80
2023-02-14T00:31:27.953Z,34.77
2023-02-14T00:33:56.015Z,31.50
2023-02-14T00:36:25.386Z,31.80
2023-02-14T00:38:53.296Z,33.37
2023-02-14T00:41:21.220Z,32.57
2023-02-14T00:43:50.181Z,33.47
2023-02-14T00:46:19.364Z,35.27
2023-02-14T00:48:47.764Z,33.97
2023-02-14T00:51:18.345Z,34.53
2023-02-14T00:53:49.544Z,33.30
2023-02-14T00:56:19.160Z,31.03
2023-02-14T00:58:47.589Z,32.30
2023-02-14T01:01:17.146Z,32.57
2023-02-14T01:03:46.995Z,33.37
2023-02-14T01:06:14.992Z,32.30
2023-02-14T01:08:45.377Z,31.33
2023-02-14T01:11:16.349Z,32.70
2023-02-14T01:13:45.046Z,33.83
2023-02-14T01:16:15.048Z,35.10
2023-02-14T01:18:43.911Z,31.47
2023-02-14T01:21:18.492Z,35.87
2023-02-14T01:23:47.945Z,34.63
2023-02-14T01:26:17.941Z,36.03
2023-02-14T01:28:46.476Z,33.70
2023-02-14T01:31:16.386Z,33.40
2023-02-14T01:33:46.194Z,36.03
2023-02-14T01:36:18.492Z,32.97
2023-02-14T01:38:46.493Z,34.73
2023-02-14T01:41:15.208Z,31.67
2023-02-14T01:43:57.749Z,35.03
2023-02-14T01:46:27.224Z,33.77
2023-02-14T01:48:59.962Z,32.17
2023-02-14T01:51:28.217Z,33.43
2023-02-14T01:53:56.446Z,31.60
2023-02-14T01:56:30.185Z,33.97
2023-02-14T01:59:03.441Z,33.33
2023-02-14T02:01:32.128Z,30.93
2023-02-14T02:04:05.100Z,31.70
2023-02-14T02:06:36.510Z,30.50
2023-02-14T02:09:12.025Z,30.57
2023-02-14T02:11:41.252Z,29.60
2023-02-14T02:14:15.938Z,28.57
2023-02-14T02:17:00.159Z,29.37
2023-02-14T02:20:10.612Z,29.43
2023-02-14T02:23:06.132Z,29.13
2023-02-14T02:26:08.371Z,25.43
2023-02-14T02:29:05.384Z,26.77
2023-02-14T02:32:00.825Z,28.00
2023-02-14T02:35:05.505Z,24.30
2023-02-14T02:37:41.119Z,27.80
2023-02-14T02:40:24.550Z,24.93
2023-02-14T02:43:04.547Z,25.47
2023-02-14T02:46:01.241Z,22.60
2023-02-14T02:48:38.476Z,20.83
2023-02-14T02:51:31.371Z,20.87
2023-02-14T02:54:07.098Z,23.87
2023-02-14T02:56:45.469Z,22.27
2023-02-14T02:59:19.219Z,21.37
2023-02-14T03:01:52.924Z,21.07
2023-02-14T03:04:40.217Z,20.90
2023-02-14T03:07:23.489Z,17.50
2023-02-14T03:09:53.769Z,19.13
2023-02-14T03:12:41.157Z,17.70
2023-02-14T03:15:20.653Z,15.50
2023-02-14T03:17:56.476Z,16.27
2023-02-14T03:20:31.487Z,17.83
2023-02-14T03:23:09.090Z,16.73
2023-02-14T03:25:47.707Z,15.57
2023-02-14T03:28:20.165Z,18.93
2023-02-14T03:30:59.702Z,16.83
2023-02-14T03:33:32.807Z,16.93
2023-02-14T03:36:05.254Z,17.37
2023-02-14T03:38:39.974Z,14.73
2023-02-14T03:41:13.552Z,15.70
2023-02-14T03:43:46.060Z,15.47
2023-02-14T03:46:18.537Z,14.47
2023-02-14T03:48:47.994Z,14.07
2023-02-14T03:51:17.036Z,14.80
2023-02-14T03:53:49.029Z,15.27
2023-02-14T03:56:23.283Z,13.87
2023-02-14T03:58:56.832Z,13.67
2023-02-14T04:01:25.892Z,13.37
2023-02-14T04:03:56.890Z,12.47
2023-02-14T04:06:24.905Z,10.80
2023-02-14T04:08:54.294Z,13.97
2023-02-14T04:11:24.468Z,14.30
2023-02-14T04:13:52.663Z,12.13
2023-02-14T04:16:20.658Z,12.57
2023-02-14T04:19:05.923Z,12.30
2023-02-14T04:21:33.879Z,11.63
2023-02-14T04:24:03.187Z,12.13
2023-02-14T04:26:31.075Z,9.23
2023-02-14T04:28:58.925Z,10.40
2023-02-14T04:31:26.903Z,11.30
2023-02-14T04:33:54.959Z,9.77
2023-02-14T04:36:22.885Z,10.23
2023-02-14T04:38:50.681Z,11.87
2023-02-14T04:41:20.001Z,10.73
2023-02-14T04:43:47.921Z,11.57
2023-02-14T04:46:15.942Z,13.00
2023-02-14T04:48:43.861Z,12.30
2023-02-14T04:51:11.768Z,13.23
2023-02-14T04:53:40.364Z,14.07
2023-02-14T04:56:08.842Z,13.80
2023-02-14T04:58:38.165Z,15.60
2023-02-14T05:01:06.239Z,14.00
2023-02-14T05:03:34.192Z,15.10
2023-02-14T05:06:02.049Z,16.17
2023-02-14T05:08:29.988Z,15.87
2023-02-14T05:10:58.104Z,15.47
2023-02-14T05:13:26.305Z,18.73
2023-02-14T05:15:55.647Z,15.33
2023-02-14T05:18:23.571Z,15.37
2023-02-14T05:20:51.742Z,17.67
2023-02-14T05:23:19.731Z,14.67
2023-02-14T05:25:49.490Z,16.63
2023-02-14T05:28:17.829Z,15.17
2023-02-14T05:30:46.272Z,16.03
2023-02-14T05:33:15.617Z,16.80
2023-02-14T05:35:43.548Z,16.53
2023-02-14T05:38:13.046Z,15.60
2023-02-14T05:40:41.363Z,15.13
2023-02-14T05:43:09.457Z,14.33
2023-02-14T05:45:37.798Z,16.03
2023-02-14T05:48:06.120Z,14.97
2023-02-14T05:50:35.428Z,14.20
2023-02-14T05:53:04.612Z,14.87
2023-02-14T05:55:32.524Z,13.80
2023-02-14T05:58:00.422Z,15.43
2023-02-14T06:00:28.862Z,14.17
2023-02-14T06:02:56.889Z,14.43
2023-02-14T06:05:24.832Z,14.20
2023-02-14T06:07:54.452Z,14.23
2023-02-14T06:10:23.707Z,15.00
2023-02-14T06:12:53.137Z,12.93
2023-02-14T06:15:22.309Z,17.50
2023-02-14T06:17:53.474Z,15.77
2023-02-14T06:20:22.139Z,15.57
2023-02-14T06:22:50.003Z,14.47
2023-02-14T06:25:20.249Z,13.90
2023-02-14T06:27:49.468Z,14.70
2023-02-14T06:30:19.069Z,14.80
2023-02-14T06:32:46.977Z,15.43
2023-02-14T06:35:15.912Z,17.63
2023-02-14T06:37:45.135Z,14.40
2023-02-14T06:40:14.324Z,15.43
2023-02-14T06:42:44.378Z,15.60
2023-02-14T06:45:12.730Z,13.77
2023-02-14T06:47:40.706Z,14.73
2023-02-14T06:50:11.687Z,15.23
2023-02-14T06:52:40.272Z,18.13
2023-02-14T06:55:08.969Z,16.17
2023-02-14T06:57:36.870Z,14.57
2023-02-14T07:00:07.636Z,13.10
2023-02-14T07:02:35.533Z,14.63
2023-02-14T07:05:03.407Z,15.93
2023-02-14T07:07:31.337Z,15.20
2023-02-14T07:09:59.298Z,15.73
2023-02-14T07:12:27.274Z,13.93
2023-02-14T07:14:55.144Z,16.43
2023-02-14T07:17:24.373Z,15.03
2023-02-14T07:19:52.326Z,13.87
2023-02-14T07:22:20.320Z,16.60
2023-02-14T07:24:48.289Z,15.20
2023-02-14T07:27:16.249Z,14.63
2023-02-14T07:29:44.297Z,14.67
2023-02-14T07:32:12.390Z,15.90
2023-02-14T07:34:41.786Z,16.50
2023-02-14T07:37:09.909Z,15.07
2023-02-14T07:39:37.765Z,14.67
2023-02-14T07:42:05.735Z,15.53
2023-02-14T07:44:33.645Z,12.80
2023-02-14T07:47:01.661Z,15.40
2023-02-14T07:49:29.724Z,17.83
2023-02-14T07:51:58.969Z,14.77
2023-02-14T07:54:26.883Z,17.77
2023-02-14T07:56:54.868Z,17.50
2023-02-14T07:59:25.650Z,16.00
2023-02-14T08:01:54.014Z,15.30
2023-02-14T08:04:25.954Z,16.73
2023-02-14T08:06:54.711Z,13.20
2023-02-14T08:09:27.572Z,17.63
2023-02-14T08:12:14.878Z,19.40
2023-02-14T08:14:43.981Z,14.77
2023-02-14T08:17:13.495Z,16.60
2023-02-14T08:19:42.216Z,13.57
2023-02-14T08:22:10.476Z,15.40
2023-02-14T08:24:39.986Z,16.13
2023-02-14T08:27:07.974Z,16.40
2023-02-14T08:29:36.042Z,16.17
2023-02-14T08:32:04.208Z,16.77
2023-02-14T08:34:32.147Z,17.80
2023-02-14T08:37:00.103Z,17.10
2023-02-14T08:39:27.998Z,21.93
2023-02-14T08:41:57.372Z,17.53
2023-02-14T08:44:25.598Z,17.73
2023-02-14T08:46:53.612Z,17.20
2023-02-14T08:49:21.554Z,16.37
2023-02-14T08:51:49.779Z,17.03
2023-02-14T08:54:17.794Z,16.97
2023-02-14T08:56:46.977Z,19.20
2023-02-14T08:59:16.590Z,19.03
2023-02-14T09:01:44.512Z,18.83
2023-02-14T09:04:12.505Z,21.33
2023-02-14T09:06:41.139Z,19.00
2023-02-14T09:09:09.165Z,20.97
2023-02-14T09:11:37.243Z,21.27
2023-02-14T09:14:05.401Z,20.47
2023-02-14T09:16:34.767Z,23.83
2023-02-14T09:19:02.846Z,21.40
2023-02-14T09:21:30.772Z,23.43
2023-02-14T09:23:58.804Z,24.50
2023-02-14T09:26:26.944Z,22.27
2023-02-14T09:28:54.832Z,23.57
2023-02-14T09:31:24.836Z,25.90
2023-02-14T09:34:11.674Z,23.50
2023-02-14T09:36:57.179Z,20.83
2023-02-14T09:39:25.366Z,23.17
2023-02-14T09:42:20.741Z,25.70
2023-02-14T09:44:53.449Z,25.30
2023-02-14T09:47:36.087Z,23.50
2023-02-14T09:50:08.055Z,28.23
2023-02-14T09:52:36.050Z,25.10
2023-02-14T09:55:04.747Z,25.60
2023-02-14T09:57:45.038Z,27.30
2023-02-14T10:00:21.045Z,25.30
2023-02-14T10:03:03.846Z,26.50
2023-02-14T10:05:38.532Z,27.10
2023-02-14T10:08:18.388Z,24.97
2023-02-14T10:10:48.732Z,25.87
2023-02-14T10:13:23.822Z,28.40
2023-02-14T10:16:00.632Z,29.27
2023-02-14T10:18:37.078Z,29.50
2023-02-14T10:21:08.606Z,31.30
2023-02-14T10:23:39.398Z,27.50
2023-02-14T10:26:10.488Z,30.80
2023-02-14T10:28:45.046Z,33.70
2023-02-14T10:31:21.164Z,33.27
2023-02-14T10:33:56.393Z,29.57
2023-02-14T10:36:46.108Z,28.07
2023-02-14T10:39:31.568Z,34.80
2023-02-14T10:42:04.954Z,33.03
2023-02-14T10:44:44.758Z,32.63
2023-02-14T10:47:26.605Z,33.17
2023-02-14T10:50:03.251Z,33.63
2023-02-14T10:52:39.187Z,32.37
2023-02-14T10:55:30.105Z,34.00
2023-02-14T10:58:00.099Z,30.60
2023-02-14T11:00:32.241Z,32.40
2023-02-14T11:03:03.963Z,29.13
2023-02-14T11:05:36.904Z,30.20
2023-02-14T11:08:16.204Z,32.90
2023-02-14T11:10:44.420Z,30.53
2023-02-14T11:13:31.652Z,33.33
2023-02-14T11:16:04.539Z,34.93
2023-02-14T11:18:35.745Z,33.77
2023-02-14T11:21:10.178Z,32.40
2023-02-14T11:23:42.181Z,32.20
2023-02-14T11:26:17.680Z,32.17
2023-02-14T11:28:53.712Z,33.53
2023-02-14T11:31:31.155Z,34.07
2023-02-14T11:34:02.400Z,30.20
2023-02-14T11:36:33.827Z,32.87
2023-02-14T11:39:19.263Z,30.87
2023-02-14T11:41:50.027Z,32.23
2023-02-14T11:44:22.697Z,32.77
2023-02-14T11:46:53.569Z,30.37
2023-02-14T11:49:31.322Z,31.57
2023-02-14T11:52:01.597Z,33.87
2023-02-14T11:54:37.022Z,32.37
2023-02-14T11:57:13.208Z,28.97
2023-02-14T11:59:44.959Z,28.83
2023-02-14T12:02:24.353Z,34.47
2023-02-14T12:04:56.225Z,33.47
2023-02-14T12:07:29.072Z,31.57
2023-02-14T12:10:24.129Z,31.67
2023-02-14T12:12:54.708Z,31.30
2023-02-14T12:15:36.671Z,25.97
2023-02-14T12:18:25.321Z,30.43
2023-02-14T12:20:59.503Z,31.73
2023-02-14T12:23:37.293Z,29.67
2023-02-14T12:26:15.132Z,29.90
2023-02-14T12:28:50.755Z,29.50
2023-02-14T12:31:20.033Z,32.10
2023-02-14T12:33:50.205Z,29.27
2023-02-14T12:36:34.765Z,27.87
2023-02-14T12:39:10.373Z,29.53
2023-02-14T12:41:49.423Z,28.23
2023-02-14T12:44:26.672Z,27.83
2023-02-14T12:47:13.175Z,28.23
2023-02-14T12:50:04.020Z,27.23
2023-02-14T12:52:55.426Z,29.23
2023-02-14T12:55:37.226Z,29.30
2023-02-14T12:58:23.748Z,27.70
2023-02-14T13:01:04.147Z,28.27
2023-02-14T13:03:47.624Z,27.73
2023-02-14T13:06:25.487Z,28.53
2023-02-14T13:09:15.828Z,34.73
2023-02-14T13:11:53.860Z,24.80
2023-02-14T13:14:36.744Z,25.03
2023-02-14T13:17:11.243Z,27.37
2023-02-14T13:19:47.390Z,27.80
2023-02-14T13:22:19.550Z,28.77
2023-02-14T13:24:50.257Z,30.53
2023-02-14T13:27:23.413Z,25.00
2023-02-14T13:29:57.344Z,25.13
2023-02-14T13:32:29.507Z,28.57
2023-02-14T13:34:58.032Z,26.93
2023-02-14T13:37:28.241Z,25.97
2023-02-14T13:39:59.155Z,25.27
2023-02-14T13:42:56.328Z,25.93
2023-02-14T13:45:54.186Z,26.30
2023-02-14T13:48:24.518Z,24.40
2023-02-14T13:50:55.566Z,27.47
2023-02-14T13:53:39.410Z,29.30
2023-02-14T13:56:34.827Z,27.30
2023-02-14T13:59:05.876Z,25.83
2023-02-14T14:01:38.984Z,28.03
2023-02-14T14:04:28.663Z,24.57
2023-02-14T14:07:32.304Z,25.03
2023-02-14T14:10:05.643Z,27.73
2023-02-14T14:12:41.168Z,28.77
2023-02-14T14:15:18.526Z,26.17
2023-02-14T14:17:51.091Z,26.37
2023-02-14T14:20:43.082Z,25.37
2023-02-14T14:23:31.908Z,24.67
2023-02-14T14:26:00.953Z,26.33
2023-02-14T14:28:32.395Z,24.20
2023-02-14T14:31:00.848Z,24.43
2023-02-14T14:33:32.220Z,24.73
2023-02-14T14:36:04.080Z,24.47
2023-02-14T14:38:35.591Z,24.67
2023-02-14T14:41:04.011Z,25.53
2023-02-14T14:43:35.040Z,26.17
2023-02-14T14:46:05.030Z,24.37
2023-02-14T14:48:40.136Z,24.93
2023-02-14T14:51:10.252Z,25.67
2023-02-14T14:53:44.316Z,26.33
2023-02-14T14:56:13.918Z,23.37
2023-02-14T14:58:43.065Z,24.73
2023-02-14T15:01:21.113Z,25.33
2023-02-14T15:03:50.421Z,25.27
2023-02-14T15:06:20.594Z,25.67
2023-02-14T15:08:49.587Z,27.13
2023-02-14T15:11:35.924Z,24.50
2023-02-14T15:14:06.470Z,24.27
2023-02-14T15:16:41.828Z,26.27
2023-02-14T15:19:13.723Z,24.03
2023-02-14T15:21:44.639Z,23.20
2023-02-14T15:24:15.993Z,25.77
2023-02-14T15:26:45.600Z,26.60
2023-02-14T15:29:23.060Z,27.10
2023-02-14T15:31:51.641Z,25.37
2023-02-14T15:34:28.109Z,22.17
2023-02-14T15:36:59.275Z,23.67
2023-02-14T15:39:33.579Z,27.53
2023-02-14T15:42:01.591Z,29.43
2023-02-14T15:44:29.696Z,32.53
2023-02-14T15:47:01.121Z,30.90
2023-02-14T15:49:34.359Z,32.60
2023-02-14T15:52:04.313Z,31.20
2023-02-14T15:54:37.231Z,34.00
2023-02-14T15:57:06.815Z,31.57
2023-02-14T15:59:36.645Z,32.70
2023-02-14T16:02:14.008Z,33.50
2023-02-14T16:04:43.319Z,31.73
2023-02-14T16:07:24.410Z,32.47
2023-02-14T16:10:13.497Z,36.77
2023-02-14T16:12:41.898Z,34.23
2023-02-14T16:15:21.290Z,33.97
2023-02-14T16:17:49.346Z,34.87
2023-02-14T16:20:31.042Z,33.63
2023-02-14T16:23:32.676Z,34.70
2023-02-14T16:26:00.749Z,33.73
2023-02-14T16:28:32.100Z,34.43
2023-02-14T16:31:02.794Z,34.60
2023-02-14T16:33:35.109Z,34.83
2023-02-14T16:36:09.265Z,34.90
2023-02-14T16:38:43.656Z,33.53
2023-02-14T16:41:17.956Z,35.97
2023-02-14T16:43:46.559Z,32.10
2023-02-14T16:46:15.735Z,33.97
2023-02-14T16:48:45.503Z,33.73
2023-02-14T16:51:16.178Z,34.57
2023-02-14T16:53:44.698Z,37.10
2023-02-14T16:56:17.962Z,33.53
2023-02-14T16:58:46.728Z,33.53
2023-02-14T17:01:14.903Z,42.90
2023-02-14T17:03:43.504Z,36.00
2023-02-14T17:06:14.072Z,34.90
2023-02-14T17:08:44.249Z,36.53
2023-02-14T17:11:12.331Z,36.23
2023-02-14T17:13:44.323Z,35.23
2023-02-14T17:16:15.514Z,36.73
2023-02-14T17:18:46.190Z,33.93
2023-02-14T17:21:14.837Z,35.37
2023-02-14T17:23:44.205Z,34.53
2023-02-14T17:26:12.302Z,36.60
2023-02-14T17:28:40.686Z,34.10
2023-02-14T17:31:08.896Z,34.83
2023-02-14T17:33:37.036Z,33.33
2023-02-14T17:36:06.656Z,35.30
2023-02-14T17:38:34.862Z,32.40
2023-02-14T17:41:14.319Z,34.53
2023-02-14T17:43:42.366Z,35.67
2023-02-14T17:46:10.883Z,34.10
2023-02-14T17:48:38.889Z,35.13
2023-02-14T17:51:07.957Z,33.87
2023-02-14T17:53:36.918Z,33.60
2023-02-14T17:56:07.093Z,34.70
2023-02-14T17:58:36.733Z,36.23
2023-02-14T18:01:05.533Z,33.90
2023-02-14T18:03:34.128Z,31.53
2023-02-14T18:06:03.096Z,33.63
2023-02-14T18:08:33.122Z,33.43
2023-02-14T18:11:01.316Z,33.97
2023-02-14T18:13:29.323Z,34.13
2023-02-14T18:16:02.164Z,37.10
2023-02-14T18:18:30.247Z,32.20
2023-02-14T18:21:00.234Z,34.33
2023-02-14T18:23:29.061Z,30.83
2023-02-14T18:25:59.041Z,33.07
2023-02-14T18:28:28.027Z,32.53
2023-02-14T18:30:57.733Z,32.67
2023-02-14T18:33:27.268Z,33.23
2023-02-14T18:35:55.199Z,35.33
2023-02-14T18:38:23.164Z,34.60
2023-02-14T18:40:51.092Z,32.93
2023-02-14T18:43:18.962Z,32.73
2023-02-14T18:45:47.108Z,33.03
2023-02-14T18:48:15.181Z,33.20
2023-02-14T18:50:44.497Z,34.27
2023-02-14T18:53:12.376Z,31.67
2023-02-14T18:55:40.281Z,30.47
2023-02-14T18:58:08.204Z,31.10
2023-02-14T19:00:36.190Z,32.27
2023-02-14T19:03:04.175Z,32.63
2023-02-14T19:05:32.078Z,31.77
2023-02-14T19:08:01.352Z,31.23
2023-02-14T19:10:29.307Z,33.07
2023-02-14T19:12:57.223Z,32.40
2023-02-14T19:15:25.132Z,29.83
2023-02-14T19:17:54.184Z,29.30
2023-02-14T19:20:22.302Z,31.67
2023-02-14T19:22:50.595Z,30.73
2023-02-14T19:25:20.053Z,29.27
2023-02-14T19:27:49.399Z,32.57
2023-02-14T19:30:17.825Z,27.67
2023-02-14T19:32:45.878Z,28.07
2023-02-14T19:35:13.771Z,28.83
2023-02-14T19:37:41.708Z,30.73
2023-02-14T19:40:10.762Z,27.33
2023-02-14T19:42:39.980Z,29.40
2023-02-14T19:45:08.517Z,30.83
2023-02-14T19:47:46.678Z,30.17
2023-02-14T19:50:15.127Z,33.87
2023-02-14T19:52:43.843Z,28.33
2023-02-14T19:55:21.096Z,27.80
2023-02-14T19:57:50.457Z,27.57
2023-02-14T20:00:20.926Z,28.30
2023-02-14T20:02:49.102Z,29.43
2023-02-14T20:05:17.541Z,27.33
2023-02-14T20:07:49.067Z,28.07
2023-02-14T20:10:17.686Z,27.27
2023-02-14T20:12:45.595Z,28.23
2023-02-14T20:15:15.318Z,28.80
2023-02-14T20:17:43.251Z,29.07
2023-02-14T20:20:13.678Z,29.20
2023-02-14T20:22:41.735Z,30.00
2023-02-14T20:25:11.217Z,27.90
2023-02-14T20:27:39.508Z,30.50
2023-02-14T20:30:08.963Z,28.83
2023-02-14T20:32:38.307Z,31.53
2023-02-14T20:35:07.383Z,30.80
2023-02-14T20:37:35.554Z,29.70
2023-02-14T20:40:03.683Z,28.93
2023-02-14T20:42:31.724Z,27.47
2023-02-14T20:44:59.604Z,25.90
2023-02-14T20:47:28.608Z,25.80
2023-02-14T20:49:57.916Z,30.30
2023-02-14T20:52:26.924Z,28.63
2023-02-14T20:54:54.915Z,25.23
2023-02-14T20:57:23.488Z,28.10
2023-02-14T20:59:51.348Z,26.40
2023-02-14T21:02:19.219Z,26.97
2023-02-14T21:04:47.156Z,27.03
2023-02-14T21:07:16.473Z,25.13
2023-02-14T21:09:44.394Z,25.90
2023-02-14T21:12:12.516Z,25.37
2023-02-14T21:14:40.408Z,28.40
2023-02-14T21:17:08.381Z,26.03
2023-02-14T21:19:36.224Z,29.60
2023-02-14T21:22:04.325Z,26.67
2023-02-14T21:24:33.591Z,27.07
2023-02-14T21:27:02.476Z,24.43
2023-02-14T21:29:30.420Z,24.03
2023-02-14T21:31:58.411Z,27.00
2023-02-14T21:34:27.774Z,25.93
2023-02-14T21:36:56.372Z,24.73
2023-02-14T21:39:27.496Z,27.73
2023-02-14T21:41:56.833Z,27.13
2023-02-14T21:44:38.798Z,26.20
2023-02-14T21:47:06.691Z,26.10
2023-02-14T21:49:52.256Z,24.30
2023-02-14T21:52:20.140Z,23.83
2023-02-14T21:54:48.391Z,22.27
2023-02-14T21:57:17.711Z,24.90
2023-02-14T21:59:45.625Z,24.60
2023-02-14T22:02:13.767Z,27.47
2023-02-14T22:04:43.218Z,27.17
2023-02-14T22:07:11.257Z,26.83
2023-02-14T22:09:39.243Z,22.87
2023-02-14T22:12:07.966Z,24.20
2023-02-14T22:14:37.309Z,24.53
2023-02-14T22:17:05.336Z,25.40
2023-02-14T22:19:33.281Z,25.07
2023-02-14T22:22:01.254Z,25.07
2023-02-14T22:24:29.359Z,23.47
2023-02-14T22:26:57.328Z,26.17
2023-02-14T22:29:25.259Z,28.73
2023-02-14T22:31:54.697Z,24.00
2023-02-14T22:34:22.647Z,25.03
2023-02-14T22:36:51.212Z,27.47
2023-02-14T22:39:19.200Z,23.87
2023-02-14T22:41:47.627Z,23.17
2023-02-14T22:44:15.886Z,25.73
2023-02-14T22:46:43.911Z,26.30
2023-02-14T22:49:13.244Z,23.13
2023-02-14T22:51:42.793Z,21.80
2023-02-14T22:54:13.477Z,23.47
2023-02-14T22:56:43.636Z,26.07
2023-02-14T22:59:16.227Z,26.40
2023-02-14T23:01:44.301Z,25.80
2023-02-14T23:04:14.006Z,24.00
2023-02-14T23:06:41.924Z,25.87
2023-02-14T23:09:11.986Z,24.90
2023-02-14T23:11:41.230Z,22.73
2023-02-14T23:14:26.745Z,23.90
2023-02-14T23:17:20.368Z,23.97
2023-02-14T23:20:06.999Z,25.43
2023-02-14T23:22:36.969Z,21.20
2023-02-14T23:25:08.267Z,22.50
2023-02-14T23:27:37.997Z,24.10
2023-02-14T23:30:06.693Z,23.40
2023-02-14T23:32:34.724Z,20.73
2023-02-14T23:35:04.052Z,23.83
2023-02-14T23:37:31.951Z,24.00
2023-02-14T23:39:59.818Z,23.00
2023-02-14T23:42:28.273Z,21.93
2023-02-14T23:45:16.213Z,25.23
2023-02-14T23:47:44.147Z,23.33
2023-02-14T23:50:13.569Z,25.43
2023-02-14T23:52:41.693Z,23.73
2023-02-14T23:55:10.114Z,24.43
2023-02-14T23:57:38.467Z,25.47
